CPX789 Details

Departure: Changi International Airport (WSSS)
Arrival: Incheon International Airport (RKSI) at N/A
Route: TOMAN2A TOMAN L625 MEVIN B462 MJC IKEMA Y62 YURIX Y27 RUSAR Y579 CJU B576 OLMEN OLMEN1P
Notes:


Current Weather Information
WSSS 191630Z 16008KT 9999 FEW018 BKN300 28/25 Q1011 NOSIG
RKSI 191630Z 03006KT CAVOK 24/19 Q1010 NOSIG